sensor_id;sensor_type;location;lat;lon;timestamp;pressure;altitude;pressure_sealevel;temperature;humidity
61408;BME280;47274;43.054;25.146;2023-02-18T00:01:15;96122.06;;;7.77;41.72
61408;BME280;47274;43.054;25.146;2023-02-18T00:03:42;96122.06;;;7.66;42.42
61408;BME280;47274;43.054;25.146;2023-02-18T00:06:32;96106.47;;;7.58;42.39
61408;BME280;47274;43.054;25.146;2023-02-18T00:08:59;96114.03;;;7.71;42.38
61408;BME280;47274;43.054;25.146;2023-02-18T00:11:28;96091.19;;;7.69;41.97
61408;BME280;47274;43.054;25.146;2023-02-18T00:13:58;96112.69;;;8.00;41.46
61408;BME280;47274;43.054;25.146;2023-02-18T00:16:26;96091.63;;;7.86;41.38
61408;BME280;47274;43.054;25.146;2023-02-18T00:18:57;96107.31;;;7.92;41.71
61408;BME280;47274;43.054;25.146;2023-02-18T00:21:23;96100.81;;;7.88;42.04
61408;BME280;47274;43.054;25.146;2023-02-18T00:23:49;96098.25;;;7.77;42.03
61408;BME280;47274;43.054;25.146;2023-02-18T00:26:17;96100.09;;;7.64;43.22
61408;BME280;47274;43.054;25.146;2023-02-18T00:28:43;96058.47;;;7.28;42.62
61408;BME280;47274;43.054;25.146;2023-02-18T00:31:12;96055.66;;;7.20;43.21
61408;BME280;47274;43.054;25.146;2023-02-18T00:33:40;96090.06;;;7.38;43.51
61408;BME280;47274;43.054;25.146;2023-02-18T00:36:09;96079.97;;;7.36;43.14
61408;BME280;47274;43.054;25.146;2023-02-18T00:38:36;96089.81;;;7.41;43.08
61408;BME280;47274;43.054;25.146;2023-02-18T00:41:03;96096.59;;;7.42;43.47
61408;BME280;47274;43.054;25.146;2023-02-18T00:43:29;96093.09;;;7.43;43.24
61408;BME280;47274;43.054;25.146;2023-02-18T00:45:55;96081.25;;;7.42;42.46
61408;BME280;47274;43.054;25.146;2023-02-18T00:48:21;96073.13;;;7.37;42.63
61408;BME280;47274;43.054;25.146;2023-02-18T00:50:47;96070.69;;;7.35;43.07
61408;BME280;47274;43.054;25.146;2023-02-18T00:53:13;96068.13;;;7.35;42.78
61408;BME280;47274;43.054;25.146;2023-02-18T00:55:42;96068.72;;;7.39;42.86
61408;BME280;47274;43.054;25.146;2023-02-18T00:58:09;96037.84;;;6.96;43.14
61408;BME280;47274;43.054;25.146;2023-02-18T01:00:37;96072.44;;;7.11;43.65
61408;BME280;47274;43.054;25.146;2023-02-18T01:03:04;96045.25;;;6.87;44.18
61408;BME280;47274;43.054;25.146;2023-02-18T01:05:32;96064.78;;;7.11;43.53
61408;BME280;47274;43.054;25.146;2023-02-18T01:07:58;96055.22;;;7.15;43.86
61408;BME280;47274;43.054;25.146;2023-02-18T01:10:25;96054.88;;;7.19;43.49
61408;BME280;47274;43.054;25.146;2023-02-18T01:12:51;96047.78;;;7.23;43.44
61408;BME280;47274;43.054;25.146;2023-02-18T01:15:18;96008.97;;;6.84;43.23
61408;BME280;47274;43.054;25.146;2023-02-18T01:17:44;96043.72;;;7.20;42.58
61408;BME280;47274;43.054;25.146;2023-02-18T01:20:11;96014.47;;;7.24;42.69
61408;BME280;47274;43.054;25.146;2023-02-18T01:22:37;96003.00;;;7.19;42.44
61408;BME280;47274;43.054;25.146;2023-02-18T01:25:06;96035.63;;;7.38;42.47
61408;BME280;47274;43.054;25.146;2023-02-18T01:27:33;96036.78;;;7.22;42.96
61408;BME280;47274;43.054;25.146;2023-02-18T01:30:00;96034.31;;;7.21;42.72
61408;BME280;47274;43.054;25.146;2023-02-18T01:32:26;96008.63;;;7.00;42.84
61408;BME280;47274;43.054;25.146;2023-02-18T01:34:52;96042.75;;;7.10;42.72
61408;BME280;47274;43.054;25.146;2023-02-18T01:37:18;96035.31;;;7.07;42.73
61408;BME280;47274;43.054;25.146;2023-02-18T01:39:44;96030.72;;;7.12;42.64
61408;BME280;47274;43.054;25.146;2023-02-18T01:42:29;95997.41;;;7.02;42.12
61408;BME280;47274;43.054;25.146;2023-02-18T01:50:53;96032.72;;;7.31;42.13
61408;BME280;47274;43.054;25.146;2023-02-18T01:53:26;96031.22;;;7.28;42.00
61408;BME280;47274;43.054;25.146;2023-02-18T01:55:53;96023.19;;;7.22;41.84
61408;BME280;47274;43.054;25.146;2023-02-18T01:58:20;96032.63;;;7.32;41.97
61408;BME280;47274;43.054;25.146;2023-02-18T02:00:47;96022.50;;;7.31;41.77
61408;BME280;47274;43.054;25.146;2023-02-18T02:03:13;96028.69;;;7.40;41.47
61408;BME280;47274;43.054;25.146;2023-02-18T02:05:42;96023.31;;;7.31;42.21
61408;BME280;47274;43.054;25.146;2023-02-18T02:08:11;96025.84;;;7.31;41.94
61408;BME280;47274;43.054;25.146;2023-02-18T02:16:42;96002.88;;;7.09;42.16
61408;BME280;47274;43.054;25.146;2023-02-18T02:19:42;96014.00;;;7.08;43.10
61408;BME280;47274;43.054;25.146;2023-02-18T02:22:28;96015.19;;;7.15;42.41
61408;BME280;47274;43.054;25.146;2023-02-18T02:28:40;96000.63;;;6.93;43.97
61408;BME280;47274;43.054;25.146;2023-02-18T02:31:38;96020.78;;;6.85;43.99
61408;BME280;47274;43.054;25.146;2023-02-18T02:37:13;96005.91;;;6.44;44.88
61408;BME280;47274;43.054;25.146;2023-02-18T02:40:06;96008.69;;;6.28;45.79
61408;BME280;47274;43.054;25.146;2023-02-18T02:43:03;95984.22;;;6.01;45.80
61408;BME280;47274;43.054;25.146;2023-02-18T02:48:12;96008.06;;;6.37;45.55
61408;BME280;47274;43.054;25.146;2023-02-18T02:50:56;96008.28;;;6.34;45.53
61408;BME280;47274;43.054;25.146;2023-02-18T02:53:29;96009.59;;;6.63;44.92
61408;BME280;47274;43.054;25.146;2023-02-18T02:55:56;96025.25;;;6.70;44.82
61408;BME280;47274;43.054;25.146;2023-02-18T02:58:23;96014.69;;;6.63;44.45
61408;BME280;47274;43.054;25.146;2023-02-18T03:03:42;96011.03;;;6.90;44.56
61408;BME280;47274;43.054;25.146;2023-02-18T03:11:51;96006.22;;;7.09;44.05
61408;BME280;47274;43.054;25.146;2023-02-18T03:14:28;96006.44;;;7.06;43.65
61408;BME280;47274;43.054;25.146;2023-02-18T03:17:04;96018.53;;;7.04;43.81
61408;BME280;47274;43.054;25.146;2023-02-18T03:19:38;96015.63;;;7.09;43.61
61408;BME280;47274;43.054;25.146;2023-02-18T03:22:11;96013.16;;;7.07;43.95
61408;BME280;47274;43.054;25.146;2023-02-18T03:24:41;96013.34;;;6.82;44.86
61408;BME280;47274;43.054;25.146;2023-02-18T03:27:16;95984.06;;;6.63;44.96
61408;BME280;47274;43.054;25.146;2023-02-18T03:29:48;96015.13;;;6.57;45.88
61408;BME280;47274;43.054;25.146;2023-02-18T03:32:19;96019.88;;;6.38;46.68
61408;BME280;47274;43.054;25.146;2023-02-18T03:34:50;96010.66;;;6.24;46.63
61408;BME280;47274;43.054;25.146;2023-02-18T03:37:18;96007.72;;;6.17;46.99
61408;BME280;47274;43.054;25.146;2023-02-18T03:39:50;95994.19;;;5.55;48.64
61408;BME280;47274;43.054;25.146;2023-02-18T03:42:17;96006.81;;;5.18;50.03
61408;BME280;47274;43.054;25.146;2023-02-18T03:44:43;96009.78;;;5.37;49.88
61408;BME280;47274;43.054;25.146;2023-02-18T03:47:10;96008.38;;;5.20;50.24
61408;BME280;47274;43.054;25.146;2023-02-18T03:49:36;95949.63;;;4.98;48.79
61408;BME280;47274;43.054;25.146;2023-02-18T03:52:03;96012.50;;;5.60;48.44
61408;BME280;47274;43.054;25.146;2023-02-18T03:54:29;96007.00;;;5.53;49.11
61408;BME280;47274;43.054;25.146;2023-02-18T03:56:55;96015.16;;;5.45;49.08
61408;BME280;47274;43.054;25.146;2023-02-18T03:59:21;96011.09;;;5.43;49.07
61408;BME280;47274;43.054;25.146;2023-02-18T04:01:47;96004.19;;;5.45;49.58
61408;BME280;47274;43.054;25.146;2023-02-18T04:04:12;95996.03;;;5.40;49.77
61408;BME280;47274;43.054;25.146;2023-02-18T04:06:38;96005.31;;;5.41;49.94
61408;BME280;47274;43.054;25.146;2023-02-18T04:09:04;95996.84;;;5.28;50.15
61408;BME280;47274;43.054;25.146;2023-02-18T04:11:37;95999.72;;;5.23;50.70
61408;BME280;47274;43.054;25.146;2023-02-18T04:14:04;95995.84;;;5.17;50.87
61408;BME280;47274;43.054;25.146;2023-02-18T04:16:30;95961.25;;;4.89;51.23
61408;BME280;47274;43.054;25.146;2023-02-18T04:18:58;95971.50;;;4.88;52.00
61408;BME280;47274;43.054;25.146;2023-02-18T04:21:24;95952.66;;;5.41;49.25
61408;BME280;47274;43.054;25.146;2023-02-18T04:23:50;95953.09;;;5.85;47.74
61408;BME280;47274;43.054;25.146;2023-02-18T04:26:16;95949.03;;;5.82;48.37
61408;BME280;47274;43.054;25.146;2023-02-18T04:28:42;95990.91;;;6.15;47.77
61408;BME280;47274;43.054;25.146;2023-02-18T04:31:08;95950.69;;;6.07;47.49
61408;BME280;47274;43.054;25.146;2023-02-18T04:33:36;95979.88;;;6.62;46.99
61408;BME280;47274;43.054;25.146;2023-02-18T04:36:01;95966.75;;;6.56;46.80
61408;BME280;47274;43.054;25.146;2023-02-18T04:38:28;95980.03;;;6.72;46.26
61408;BME280;47274;43.054;25.146;2023-02-18T04:40:54;95982.50;;;6.85;46.42
61408;BME280;47274;43.054;25.146;2023-02-18T04:43:19;95978.47;;;6.94;45.57
61408;BME280;47274;43.054;25.146;2023-02-18T04:45:45;95964.53;;;6.86;46.20
61408;BME280;47274;43.054;25.146;2023-02-18T04:48:11;95968.75;;;7.10;45.14
61408;BME280;47274;43.054;25.146;2023-02-18T04:50:37;95968.06;;;7.19;45.22
61408;BME280;47274;43.054;25.146;2023-02-18T04:53:03;95960.66;;;7.16;44.87
61408;BME280;47274;43.054;25.146;2023-02-18T04:55:29;95939.75;;;7.11;44.97
61408;BME280;47274;43.054;25.146;2023-02-18T04:57:54;95953.94;;;7.15;45.26
61408;BME280;47274;43.054;25.146;2023-02-18T05:00:20;95928.72;;;7.10;44.69
61408;BME280;47274;43.054;25.146;2023-02-18T05:02:46;95923.31;;;7.15;44.97
61408;BME280;47274;43.054;25.146;2023-02-18T05:05:13;95933.72;;;7.34;45.60
61408;BME280;47274;43.054;25.146;2023-02-18T05:07:42;95955.66;;;7.71;43.77
61408;BME280;47274;43.054;25.146;2023-02-18T05:10:10;95956.47;;;7.60;44.63
61408;BME280;47274;43.054;25.146;2023-02-18T05:12:36;95953.47;;;7.44;44.77
61408;BME280;47274;43.054;25.146;2023-02-18T05:15:05;95932.34;;;7.19;45.26
61408;BME280;47274;43.054;25.146;2023-02-18T05:17:31;95970.06;;;7.60;44.05
61408;BME280;47274;43.054;25.146;2023-02-18T05:19:56;95947.66;;;7.64;44.19
61408;BME280;47274;43.054;25.146;2023-02-18T05:22:22;95954.59;;;7.62;44.45
61408;BME280;47274;43.054;25.146;2023-02-18T05:24:48;95932.56;;;7.50;44.89
61408;BME280;47274;43.054;25.146;2023-02-18T05:27:14;95928.59;;;7.68;44.08
61408;BME280;47274;43.054;25.146;2023-02-18T05:29:40;95939.03;;;7.65;44.59
61408;BME280;47274;43.054;25.146;2023-02-18T05:32:07;95951.34;;;7.82;44.01
61408;BME280;47274;43.054;25.146;2023-02-18T05:34:35;95930.69;;;7.52;44.43
61408;BME280;47274;43.054;25.146;2023-02-18T05:37:01;95940.31;;;7.82;43.85
61408;BME280;47274;43.054;25.146;2023-02-18T05:39:26;95944.81;;;8.01;44.13
61408;BME280;47274;43.054;25.146;2023-02-18T05:41:53;95922.34;;;7.61;44.07
61408;BME280;47274;43.054;25.146;2023-02-18T05:44:19;95939.63;;;7.80;43.85
61408;BME280;47274;43.054;25.146;2023-02-18T05:47:06;95952.19;;;7.60;44.55
61408;BME280;47274;43.054;25.146;2023-02-18T05:49:34;95936.75;;;7.40;44.96
61408;BME280;47274;43.054;25.146;2023-02-18T05:52:02;95929.31;;;7.48;44.71
61408;BME280;47274;43.054;25.146;2023-02-18T05:54:29;95936.72;;;7.62;45.14
61408;BME280;47274;43.054;25.146;2023-02-18T05:56:55;95910.06;;;7.32;45.03
61408;BME280;47274;43.054;25.146;2023-02-18T05:59:23;95922.72;;;7.34;45.93
61408;BME280;47274;43.054;25.146;2023-02-18T06:01:49;95927.13;;;7.43;45.58
61408;BME280;47274;43.054;25.146;2023-02-18T06:04:15;95914.22;;;7.67;45.24
61408;BME280;47274;43.054;25.146;2023-02-18T06:06:41;95927.34;;;8.06;43.81
61408;BME280;47274;43.054;25.146;2023-02-18T06:09:07;95901.97;;;7.93;43.83
61408;BME280;47274;43.054;25.146;2023-02-18T06:11:34;95903.34;;;7.97;43.81
61408;BME280;47274;43.054;25.146;2023-02-18T06:14:01;95940.00;;;8.19;43.81
61408;BME280;47274;43.054;25.146;2023-02-18T06:16:29;95930.41;;;8.32;43.79
61408;BME280;47274;43.054;25.146;2023-02-18T06:18:55;95918.41;;;8.44;42.49
61408;BME280;47274;43.054;25.146;2023-02-18T06:21:21;95927.03;;;8.43;42.42
61408;BME280;47274;43.054;25.146;2023-02-18T06:23:47;95897.97;;;8.32;43.25
61408;BME280;47274;43.054;25.146;2023-02-18T06:26:19;95917.34;;;8.46;43.20
61408;BME280;47274;43.054;25.146;2023-02-18T06:28:45;95933.72;;;8.55;42.70
61408;BME280;47274;43.054;25.146;2023-02-18T06:31:13;95929.75;;;8.51;42.78
61408;BME280;47274;43.054;25.146;2023-02-18T06:33:39;95931.34;;;8.63;42.16
61408;BME280;47274;43.054;25.146;2023-02-18T06:36:06;95935.84;;;8.71;42.50
61408;BME280;47274;43.054;25.146;2023-02-18T06:38:34;95940.59;;;8.96;41.38
61408;BME280;47274;43.054;25.146;2023-02-18T06:41:00;95931.28;;;8.95;41.97
61408;BME280;47274;43.054;25.146;2023-02-18T06:43:27;95923.97;;;8.91;41.74
61408;BME280;47274;43.054;25.146;2023-02-18T06:45:53;95923.56;;;8.86;42.09
61408;BME280;47274;43.054;25.146;2023-02-18T06:48:19;95907.44;;;8.74;42.26
61408;BME280;47274;43.054;25.146;2023-02-18T06:50:45;95903.13;;;8.95;41.50
61408;BME280;47274;43.054;25.146;2023-02-18T06:53:11;95931.28;;;9.16;41.91
61408;BME280;47274;43.054;25.146;2023-02-18T06:55:38;95908.03;;;9.08;40.97
61408;BME280;47274;43.054;25.146;2023-02-18T06:58:04;95902.91;;;9.08;41.74
61408;BME280;47274;43.054;25.146;2023-02-18T07:00:32;95900.19;;;9.00;40.83
61408;BME280;47274;43.054;25.146;2023-02-18T07:02:57;95923.84;;;9.13;41.39
61408;BME280;47274;43.054;25.146;2023-02-18T07:05:24;95898.50;;;9.10;40.93
61408;BME280;47274;43.054;25.146;2023-02-18T07:07:52;95909.88;;;9.27;41.71
61408;BME280;47274;43.054;25.146;2023-02-18T07:10:20;95910.81;;;9.26;41.53
61408;BME280;47274;43.054;25.146;2023-02-18T07:12:47;95919.22;;;9.38;41.42
61408;BME280;47274;43.054;25.146;2023-02-18T07:15:15;95897.53;;;9.42;41.59
61408;BME280;47274;43.054;25.146;2023-02-18T07:17:41;95913.66;;;9.73;40.68
61408;BME280;47274;43.054;25.146;2023-02-18T07:20:12;95918.28;;;9.89;40.91
61408;BME280;47274;43.054;25.146;2023-02-18T07:22:38;95926.53;;;10.12;40.54
61408;BME280;47274;43.054;25.146;2023-02-18T07:25:04;95892.03;;;10.35;39.90
61408;BME280;47274;43.054;25.146;2023-02-18T07:27:30;95920.34;;;10.82;38.93
61408;BME280;47274;43.054;25.146;2023-02-18T07:29:57;95930.97;;;11.07;38.00
61408;BME280;47274;43.054;25.146;2023-02-18T07:32:24;95922.88;;;11.11;38.21
61408;BME280;47274;43.054;25.146;2023-02-18T07:34:52;95897.44;;;11.18;37.99
61408;BME280;47274;43.054;25.146;2023-02-18T07:37:19;95907.34;;;11.41;37.54
61408;BME280;47274;43.054;25.146;2023-02-18T07:39:45;95914.41;;;11.38;37.40
61408;BME280;47274;43.054;25.146;2023-02-18T07:42:11;95934.31;;;11.54;37.08
61408;BME280;47274;43.054;25.146;2023-02-18T07:44:39;95919.13;;;11.33;37.28
61408;BME280;47274;43.054;25.146;2023-02-18T07:47:06;95913.94;;;11.15;37.38
61408;BME280;47274;43.054;25.146;2023-02-18T07:49:33;95915.75;;;11.33;37.71
61408;BME280;47274;43.054;25.146;2023-02-18T07:51:59;95924.88;;;11.45;37.56
61408;BME280;47274;43.054;25.146;2023-02-18T07:54:25;95907.53;;;11.57;37.75
61408;BME280;47274;43.054;25.146;2023-02-18T07:56:51;95936.16;;;11.99;37.10
61408;BME280;47274;43.054;25.146;2023-02-18T07:59:17;95909.50;;;12.00;36.36
61408;BME280;47274;43.054;25.146;2023-02-18T08:01:43;95910.72;;;11.96;35.98
61408;BME280;47274;43.054;25.146;2023-02-18T08:04:09;95918.53;;;11.87;36.69
61408;BME280;47274;43.054;25.146;2023-02-18T08:06:42;95942.03;;;11.92;36.38
61408;BME280;47274;43.054;25.146;2023-02-18T08:09:08;95946.56;;;11.70;36.84
61408;BME280;47274;43.054;25.146;2023-02-18T08:11:34;95913.28;;;11.41;37.38
61408;BME280;47274;43.054;25.146;2023-02-18T08:14:03;95927.09;;;11.40;37.29
61408;BME280;47274;43.054;25.146;2023-02-18T08:16:29;95941.69;;;11.39;37.83
61408;BME280;47274;43.054;25.146;2023-02-18T08:18:55;95940.88;;;11.49;37.60
61408;BME280;47274;43.054;25.146;2023-02-18T08:21:23;95935.56;;;11.50;37.46
61408;BME280;47274;43.054;25.146;2023-02-18T08:23:49;95933.72;;;11.70;37.55
61408;BME280;47274;43.054;25.146;2023-02-18T08:26:15;95941.56;;;11.96;37.74
61408;BME280;47274;43.054;25.146;2023-02-18T08:28:42;95931.03;;;12.53;36.43
61408;BME280;47274;43.054;25.146;2023-02-18T08:31:19;95941.09;;;12.82;36.13
61408;BME280;47274;43.054;25.146;2023-02-18T08:33:47;95935.91;;;13.26;36.17
61408;BME280;47274;43.054;25.146;2023-02-18T08:36:14;95932.59;;;13.16;36.05
61408;BME280;47274;43.054;25.146;2023-02-18T08:38:40;95906.22;;;13.22;35.66
61408;BME280;47274;43.054;25.146;2023-02-18T08:41:07;95931.63;;;14.19;35.39
61408;BME280;47274;43.054;25.146;2023-02-18T08:43:34;95929.53;;;14.31;35.79
61408;BME280;47274;43.054;25.146;2023-02-18T08:46:01;95928.28;;;14.76;34.34
61408;BME280;47274;43.054;25.146;2023-02-18T08:48:28;95902.25;;;14.20;34.48
61408;BME280;47274;43.054;25.146;2023-02-18T08:50:54;95912.66;;;13.94;34.92
61408;BME280;47274;43.054;25.146;2023-02-18T08:53:21;95874.13;;;13.42;35.14
61408;BME280;47274;43.054;25.146;2023-02-18T08:55:46;95902.16;;;13.80;35.58
61408;BME280;47274;43.054;25.146;2023-02-18T08:58:14;95922.53;;;13.99;35.68
61408;BME280;47274;43.054;25.146;2023-02-18T09:00:41;95927.94;;;13.71;35.56
61408;BME280;47274;43.054;25.146;2023-02-18T09:03:08;95923.72;;;13.70;35.95
61408;BME280;47274;43.054;25.146;2023-02-18T09:05:38;95910.72;;;13.46;36.83
61408;BME280;47274;43.054;25.146;2023-02-18T09:08:05;95903.59;;;13.40;36.48
61408;BME280;47274;43.054;25.146;2023-02-18T09:10:33;95917.28;;;13.32;36.43
61408;BME280;47274;43.054;25.146;2023-02-18T09:12:59;95884.91;;;13.12;37.27
61408;BME280;47274;43.054;25.146;2023-02-18T09:15:26;95925.03;;;13.14;37.46
61408;BME280;47274;43.054;25.146;2023-02-18T09:17:52;95897.69;;;13.21;37.57
61408;BME280;47274;43.054;25.146;2023-02-18T09:20:18;95929.63;;;13.55;37.37
61408;BME280;47274;43.054;25.146;2023-02-18T09:22:44;95926.66;;;13.75;37.28
61408;BME280;47274;43.054;25.146;2023-02-18T09:25:11;95902.56;;;14.17;35.96
61408;BME280;47274;43.054;25.146;2023-02-18T09:27:37;95906.16;;;14.82;35.58
61408;BME280;47274;43.054;25.146;2023-02-18T09:30:05;95932.31;;;14.95;34.49
61408;BME280;47274;43.054;25.146;2023-02-18T09:32:32;95925.22;;;14.89;34.95
61408;BME280;47274;43.054;25.146;2023-02-18T09:34:58;95928.78;;;14.63;35.83
61408;BME280;47274;43.054;25.146;2023-02-18T09:37:24;95941.63;;;14.22;36.46
61408;BME280;47274;43.054;25.146;2023-02-18T09:39:50;95937.59;;;13.69;37.21
61408;BME280;47274;43.054;25.146;2023-02-18T09:42:17;95935.19;;;13.76;37.22
61408;BME280;47274;43.054;25.146;2023-02-18T09:44:50;95907.34;;;13.88;37.34
61408;BME280;47274;43.054;25.146;2023-02-18T09:49:57;95943.91;;;15.79;35.02
61408;BME280;47274;43.054;25.146;2023-02-18T09:52:30;95936.81;;;15.17;35.86
61408;BME280;47274;43.054;25.146;2023-02-18T09:54:56;95949.94;;;15.08;36.12
61408;BME280;47274;43.054;25.146;2023-02-18T09:57:37;95945.72;;;14.82;36.50
61408;BME280;47274;43.054;25.146;2023-02-18T10:00:30;95955.25;;;14.82;37.09
61408;BME280;47274;43.054;25.146;2023-02-18T10:03:03;95955.63;;;15.51;35.96
61408;BME280;47274;43.054;25.146;2023-02-18T10:05:32;95955.94;;;15.64;35.43
61408;BME280;47274;43.054;25.146;2023-02-18T10:08:05;95955.84;;;15.97;35.78
61408;BME280;47274;43.054;25.146;2023-02-18T10:10:44;95934.22;;;15.81;35.26
61408;BME280;47274;43.054;25.146;2023-02-18T10:13:20;95923.03;;;15.33;35.62
61408;BME280;47274;43.054;25.146;2023-02-18T10:15:49;95944.28;;;15.04;36.62
61408;BME280;47274;43.054;25.146;2023-02-18T10:20:52;95941.94;;;14.19;38.07
61408;BME280;47274;43.054;25.146;2023-02-18T10:23:24;95929.38;;;13.74;38.35
61408;BME280;47274;43.054;25.146;2023-02-18T10:25:51;95934.22;;;13.77;38.98
61408;BME280;47274;43.054;25.146;2023-02-18T10:28:21;95937.69;;;13.60;38.58
61408;BME280;47274;43.054;25.146;2023-02-18T10:31:02;95940.03;;;13.71;39.36
61408;BME280;47274;43.054;25.146;2023-02-18T10:36:55;95931.75;;;14.10;38.23
61408;BME280;47274;43.054;25.146;2023-02-18T10:42:31;95948.09;;;13.76;38.11
61408;BME280;47274;43.054;25.146;2023-02-18T10:48:17;95941.72;;;13.54;38.74
61408;BME280;47274;43.054;25.146;2023-02-18T10:50:43;95922.63;;;13.39;38.91
61408;BME280;47274;43.054;25.146;2023-02-18T10:55:40;95918.19;;;12.97;38.84
61408;BME280;47274;43.054;25.146;2023-02-18T10:58:29;95921.94;;;13.02;39.26
61408;BME280;47274;43.054;25.146;2023-02-18T11:00:56;95919.66;;;12.99;40.01
61408;BME280;47274;43.054;25.146;2023-02-18T11:03:25;95899.06;;;12.81;39.69
61408;BME280;47274;43.054;25.146;2023-02-18T11:05:55;95891.84;;;12.59;39.74
61408;BME280;47274;43.054;25.146;2023-02-18T11:08:27;95896.91;;;12.69;39.69
61408;BME280;47274;43.054;25.146;2023-02-18T11:10:55;95880.16;;;12.47;39.75
61408;BME280;47274;43.054;25.146;2023-02-18T11:13:29;95902.19;;;12.67;39.71
61408;BME280;47274;43.054;25.146;2023-02-18T11:16:05;95910.31;;;12.80;40.16
61408;BME280;47274;43.054;25.146;2023-02-18T11:18:38;95908.13;;;12.86;40.34
61408;BME280;47274;43.054;25.146;2023-02-18T11:21:28;95883.56;;;12.73;39.60
61408;BME280;47274;43.054;25.146;2023-02-18T11:23:56;95879.50;;;12.71;40.19
61408;BME280;47274;43.054;25.146;2023-02-18T11:26:32;95888.88;;;12.72;39.94
61408;BME280;47274;43.054;25.146;2023-02-18T11:29:22;95887.44;;;12.77;40.28
61408;BME280;47274;43.054;25.146;2023-02-18T11:31:52;95891.03;;;12.85;39.89
61408;BME280;47274;43.054;25.146;2023-02-18T11:34:22;95878.50;;;12.64;39.97
61408;BME280;47274;43.054;25.146;2023-02-18T11:36:52;95884.81;;;12.69;39.58
61408;BME280;47274;43.054;25.146;2023-02-18T11:39:22;95872.38;;;12.65;39.85
61408;BME280;47274;43.054;25.146;2023-02-18T11:44:29;95892.75;;;12.76;39.99
61408;BME280;47274;43.054;25.146;2023-02-18T11:47:03;95899.47;;;12.69;40.13
61408;BME280;47274;43.054;25.146;2023-02-18T11:49:32;95889.53;;;12.74;40.51
61408;BME280;47274;43.054;25.146;2023-02-18T11:54:40;95888.47;;;12.85;39.94
61408;BME280;47274;43.054;25.146;2023-02-18T11:57:11;95890.31;;;12.92;40.03
61408;BME280;47274;43.054;25.146;2023-02-18T11:59:40;95884.47;;;12.90;39.91
61408;BME280;47274;43.054;25.146;2023-02-18T12:04:46;95872.09;;;12.94;39.75
61408;BME280;47274;43.054;25.146;2023-02-18T12:07:27;95868.13;;;12.99;39.85
61408;BME280;47274;43.054;25.146;2023-02-18T12:10:08;95870.47;;;13.19;39.75
61408;BME280;47274;43.054;25.146;2023-02-18T12:15:21;95883.63;;;13.84;38.95
61408;BME280;47274;43.054;25.146;2023-02-18T12:21:35;95874.72;;;13.70;38.37
61408;BME280;47274;43.054;25.146;2023-02-18T12:24:25;95862.31;;;13.66;40.31
61408;BME280;47274;43.054;25.146;2023-02-18T12:29:56;95854.81;;;14.05;38.60
61408;BME280;47274;43.054;25.146;2023-02-18T12:32:41;95846.91;;;14.31;36.61
61408;BME280;47274;43.054;25.146;2023-02-18T12:41:04;95844.84;;;14.59;35.88
61408;BME280;47274;43.054;25.146;2023-02-18T13:11:41;95836.78;;;15.26;40.63
61408;BME280;47274;43.054;25.146;2023-02-18T13:14:47;95812.66;;;14.95;41.45
61408;BME280;47274;43.054;25.146;2023-02-18T13:17:16;95803.88;;;15.04;41.83
61408;BME280;47274;43.054;25.146;2023-02-18T13:19:54;95815.16;;;15.19;40.68
61408;BME280;47274;43.054;25.146;2023-02-18T13:22:24;95816.59;;;15.22;41.15
61408;BME280;47274;43.054;25.146;2023-02-18T13:24:55;95807.81;;;14.91;42.20
61408;BME280;47274;43.054;25.146;2023-02-18T13:38:09;95822.25;;;15.17;42.72
61408;BME280;47274;43.054;25.146;2023-02-18T13:40:39;95829.56;;;15.05;42.91
61408;BME280;47274;43.054;25.146;2023-02-18T13:43:31;95832.13;;;15.13;43.09
61408;BME280;47274;43.054;25.146;2023-02-18T13:49:02;95834.88;;;15.12;43.22
61408;BME280;47274;43.054;25.146;2023-02-18T13:51:45;95827.69;;;14.91;43.22
61408;BME280;47274;43.054;25.146;2023-02-18T13:57:06;95816.69;;;14.89;42.28
61408;BME280;47274;43.054;25.146;2023-02-18T14:00:04;95829.13;;;14.85;42.88
61408;BME280;47274;43.054;25.146;2023-02-18T14:02:35;95819.31;;;14.56;43.65
61408;BME280;47274;43.054;25.146;2023-02-18T14:10:30;95836.09;;;14.03;43.52
61408;BME280;47274;43.054;25.146;2023-02-18T14:18:09;95845.22;;;13.73;46.84
61408;BME280;47274;43.054;25.146;2023-02-18T14:20:48;95829.56;;;13.58;47.37
61408;BME280;47274;43.054;25.146;2023-02-18T14:28:51;95841.19;;;13.70;48.71
61408;BME280;47274;43.054;25.146;2023-02-18T14:31:35;95838.09;;;13.50;49.08
61408;BME280;47274;43.054;25.146;2023-02-18T14:37:38;95838.03;;;13.08;50.66
61408;BME280;47274;43.054;25.146;2023-02-18T14:40:21;95849.72;;;12.94;50.37
61408;BME280;47274;43.054;25.146;2023-02-18T14:49:29;95818.81;;;12.68;51.27
61408;BME280;47274;43.054;25.146;2023-02-18T14:52:03;95818.19;;;12.66;50.90
61408;BME280;47274;43.054;25.146;2023-02-18T14:54:31;95807.84;;;12.58;51.35
61408;BME280;47274;43.054;25.146;2023-02-18T14:57:05;95819.84;;;12.49;51.23
61408;BME280;47274;43.054;25.146;2023-02-18T14:59:58;95811.25;;;12.41;51.82
61408;BME280;47274;43.054;25.146;2023-02-18T15:02:27;95822.88;;;12.45;50.75
61408;BME280;47274;43.054;25.146;2023-02-18T15:05:15;95812.06;;;12.41;50.79
61408;BME280;47274;43.054;25.146;2023-02-18T15:08:09;95820.69;;;12.32;51.14
61408;BME280;47274;43.054;25.146;2023-02-18T15:10:41;95820.19;;;12.28;50.77
61408;BME280;47274;43.054;25.146;2023-02-18T15:13:30;95819.00;;;12.23;50.45
61408;BME280;47274;43.054;25.146;2023-02-18T15:16:05;95796.03;;;12.03;50.58
61408;BME280;47274;43.054;25.146;2023-02-18T15:18:39;95802.78;;;12.04;50.83
61408;BME280;47274;43.054;25.146;2023-02-18T15:21:14;95802.91;;;12.03;50.53
61408;BME280;47274;43.054;25.146;2023-02-18T15:23:41;95810.63;;;12.03;50.59
61408;BME280;47274;43.054;25.146;2023-02-18T15:26:15;95809.59;;;11.96;50.43
61408;BME280;47274;43.054;25.146;2023-02-18T15:29:03;95821.81;;;11.94;50.17
61408;BME280;47274;43.054;25.146;2023-02-18T15:31:36;95815.66;;;11.87;50.48